Time;durP1;ratioP1;P1;durP2;ratioP2;P2;SDS_P1;SDS_P2;PMS_P1;PMS_P2;Temp;Humidity;BMP_temperature;BMP_pressure;BME280_temperature;BME280_humidity;BME280_pressure;Samples;Min_cycle;Max_cycle;Signal;HPM_P1;HPM_P2
2022/11/26 00:02:22;;;;;;;;;;;20.10;60.80;;;;;;6076909;23;19905;-71
2022/11/26 00:04:49;;;;;;;;;;;20.20;60.80;;;;;;6100190;23;20349;-71
2022/11/26 00:07:17;;;;;;;;;;;20.30;59.60;;;;;;6125607;23;20074;-71
2022/11/26 00:09:44;;;;;;;;;;;20.30;57.60;;;;;;6099970;23;19905;-71
2022/11/26 00:12:19;;;;;;;;;;;20.30;58.20;;;;;;6099976;23;19940;-71
2022/11/26 00:14:46;;;;;;;;;;;20.30;59.80;;;;;;6126333;23;19905;-71
2022/11/26 00:17:15;;;;;;;;;;;20.40;59.00;;;;;;6126396;23;19987;-71
2022/11/26 00:19:43;;;;;;;;;;;20.50;58.60;;;;;;6125669;23;19920;-71
2022/11/26 00:22:15;;;;;;;;;;;20.60;56.20;;;;;;6125604;23;19915;-71
2022/11/26 00:24:42;;;;;;;;;;;20.50;59.00;;;;;;6126156;23;19909;-68
2022/11/26 00:27:08;;;;;;;;;;;20.50;67.70;;;;;;6100237;23;20248;-68
2022/11/26 00:29:35;;;;;;;;;;;19.60;77.20;;;;;;6099794;23;19905;-68
2022/11/26 00:32:02;;;;;;;;;;;19.00;78.30;;;;;;6125786;23;20241;-67
2022/11/26 00:34:28;;;;;;;;;;;18.70;78.30;;;;;;6125732;23;19912;-67
2022/11/26 00:36:55;;;;;;;;;;;18.40;76.80;;;;;;6126073;23;20316;-67
2022/11/26 00:39:22;;;;;;;;;;;18.30;78.30;;;;;;6099308;23;19917;-68
2022/11/26 00:41:49;;;;;;;;;;;18.40;77.30;;;;;;6125537;23;19912;-64
2022/11/26 00:44:20;;;;;;;;;;;18.50;79.40;;;;;;6126074;23;19988;-66
2022/11/26 00:46:47;;;;;;;;;;;18.60;74.30;;;;;;6100151;23;19952;-66
2022/11/26 00:49:14;;;;;;;;;;;18.80;74.70;;;;;;6100529;23;19920;-66
2022/11/26 00:51:40;;;;;;;;;;;18.90;71.10;;;;;;6100529;23;19909;-66
2022/11/26 00:54:08;;;;;;;;;;;19.00;68.20;;;;;;6100052;23;19913;-66
2022/11/26 00:56:35;;;;;;;;;;;19.20;69.60;;;;;;6076361;23;19905;-66
2022/11/26 00:59:01;;;;;;;;;;;19.20;66.70;;;;;;6100378;23;19928;-68
2022/11/26 01:01:28;;;;;;;;;;;19.30;67.00;;;;;;6125739;23;19905;-65
2022/11/26 01:03:54;;;;;;;;;;;19.50;64.60;;;;;;6125488;23;19927;-63
2022/11/26 01:06:21;;;;;;;;;;;19.50;65.60;;;;;;6125765;23;19905;-68
2022/11/26 01:08:48;;;;;;;;;;;19.70;65.80;;;;;;6126596;23;19933;-65
2022/11/26 01:11:16;;;;;;;;;;;19.70;63.20;;;;;;6125699;23;19927;-64
2022/11/26 01:13:43;;;;;;;;;;;19.70;64.30;;;;;;6099970;23;20387;-68
2022/11/26 01:16:28;;;;;;;;;;;19.70;64.90;;;;;;6126336;23;20328;-67
2022/11/26 01:18:56;;;;;;;;;;;19.80;63.00;;;;;;6126054;23;19909;-68
2022/11/26 01:21:24;;;;;;;;;;;20.00;65.60;;;;;;6099823;23;19905;-67
2022/11/26 01:23:51;;;;;;;;;;;20.20;65.20;;;;;;6125874;23;20240;-68
2022/11/26 01:26:21;;;;;;;;;;;20.10;63.40;;;;;;6100214;23;19905;-68
2022/11/26 01:28:47;;;;;;;;;;;20.10;65.60;;;;;;6100105;23;19960;-67
2022/11/26 01:31:15;;;;;;;;;;;20.00;66.40;;;;;;6125926;23;19905;-68
2022/11/26 01:33:42;;;;;;;;;;;20.00;65.90;;;;;;6099663;23;19920;-67
2022/11/26 01:36:16;;;;;;;;;;;20.10;65.90;;;;;;6125666;23;19905;-68
2022/11/26 01:38:43;;;;;;;;;;;20.20;64.00;;;;;;6099866;23;19913;-67
2022/11/26 01:41:17;;;;;;;;;;;20.20;64.10;;;;;;6125555;23;19909;-67
2022/11/26 01:43:44;;;;;;;;;;;20.10;63.70;;;;;;6099783;23;19909;-68
2022/11/26 01:46:15;;;;;;;;;;;20.10;64.50;;;;;;6099948;23;19911;-68
2022/11/26 01:48:41;;;;;;;;;;;20.10;65.40;;;;;;6099590;23;19911;-68
2022/11/26 01:51:08;;;;;;;;;;;20.10;64.90;;;;;;6099205;23;19981;-67
2022/11/26 01:53:45;;;;;;;;;;;20.10;65.60;;;;;;6125804;23;19940;-67
2022/11/26 01:56:17;;;;;;;;;;;20.20;64.80;;;;;;6125370;23;19953;-67
2022/11/26 01:58:45;;;;;;;;;;;20.20;63.60;;;;;;6125641;23;20236;-67
2022/11/26 02:01:12;;;;;;;;;;;20.30;65.60;;;;;;6099232;23;19912;-67
2022/11/26 02:04:08;;;;;;;;;;;20.30;62.40;;;;;;6099497;23;19932;-67
2022/11/26 02:06:34;;;;;;;;;;;20.30;63.90;;;;;;6021869;23;19968;-67
2022/11/26 02:09:02;;;;;;;;;;;20.30;65.10;;;;;;6125361;23;19979;-67
2022/11/26 02:11:29;;;;;;;;;;;20.40;64.90;;;;;;6125062;23;19944;-67
2022/11/26 02:13:56;;;;;;;;;;;20.50;63.30;;;;;;6125354;23;19960;-67
2022/11/26 02:16:37;;;;;;;;;;;20.50;64.30;;;;;;6099771;23;19992;-67
2022/11/26 02:19:03;;;;;;;;;;;20.50;62.70;;;;;;6125534;23;19913;-67
2022/11/26 02:21:30;;;;;;;;;;;20.50;61.80;;;;;;6124733;23;20367;-67
2022/11/26 02:24:09;;;;;;;;;;;20.50;63.30;;;;;;6125165;23;19905;-67
2022/11/26 02:26:44;;;;;;;;;;;20.50;62.30;;;;;;6125303;23;19979;-67
2022/11/26 02:29:39;;;;;;;;;;;20.60;62.60;;;;;;6125062;23;19905;-67
2022/11/26 02:32:17;;;;;;;;;;;20.60;61.70;;;;;;6099517;23;20240;-67
2022/11/26 02:34:45;;;;;;;;;;;20.70;61.80;;;;;;6099277;23;20226;-67
2022/11/26 02:37:32;;;;;;;;;;;20.80;62.10;;;;;;6099755;23;19909;-67
2022/11/26 02:39:58;;;;;;;;;;;20.80;60.00;;;;;;6124305;23;20063;-67
2022/11/26 02:42:26;;;;;;;;;;;20.90;61.50;;;;;;6125298;23;20174;-67
2022/11/26 02:44:54;;;;;;;;;;;21.00;60.40;;;;;;6100014;23;19979;-67
2022/11/26 02:47:25;;;;;;;;;;;21.00;59.10;;;;;;6124302;23;20274;-67
2022/11/26 02:49:51;;;;;;;;;;;21.10;60.40;;;;;;6099415;23;19958;-67
2022/11/26 02:52:18;;;;;;;;;;;21.10;60.70;;;;;;6125012;23;19905;-67
2022/11/26 02:54:45;;;;;;;;;;;21.10;60.00;;;;;;6099528;23;19909;-68
2022/11/26 02:57:12;;;;;;;;;;;21.00;60.50;;;;;;6125071;23;19905;-68
2022/11/26 02:59:39;;;;;;;;;;;21.00;61.00;;;;;;6099326;23;19930;-67
2022/11/26 03:02:17;;;;;;;;;;;21.00;61.20;;;;;;6099743;23;19979;-67
2022/11/26 03:04:45;;;;;;;;;;;21.00;61.10;;;;;;6128489;23;19916;-67
2022/11/26 03:07:13;;;;;;;;;;;20.90;61.10;;;;;;6102747;23;19915;-68
2022/11/26 03:09:49;;;;;;;;;;;21.00;61.80;;;;;;6102365;23;19905;-67
2022/11/26 03:12:15;;;;;;;;;;;20.90;61.40;;;;;;6128212;23;19980;-68
2022/11/26 03:14:42;;;;;;;;;;;20.90;61.10;;;;;;6127944;23;19940;-68
2022/11/26 03:17:09;;;;;;;;;;;20.90;62.40;;;;;;6128356;23;20328;-68
2022/11/26 03:19:35;;;;;;;;;;;21.00;61.80;;;;;;6127781;23;19912;-68
2022/11/26 03:22:02;;;;;;;;;;;21.10;63.20;;;;;;6128112;23;20348;-68
2022/11/26 03:24:29;;;;;;;;;;;21.20;64.10;;;;;;6128420;23;20296;-68
2022/11/26 03:26:56;;;;;;;;;;;21.20;63.90;;;;;;6128627;23;19905;-68
2022/11/26 03:29:22;;;;;;;;;;;21.20;61.40;;;;;;6128270;23;19972;-68
2022/11/26 03:31:49;;;;;;;;;;;21.30;61.00;;;;;;6128467;23;19913;-67
2022/11/26 03:34:15;;;;;;;;;;;21.20;59.30;;;;;;6127791;23;19944;-68
2022/11/26 03:36:42;;;;;;;;;;;21.00;59.90;;;;;;6102192;23;19967;-68
2022/11/26 03:39:09;;;;;;;;;;;21.10;59.90;;;;;;6128028;23;20036;-68
2022/11/26 03:41:36;;;;;;;;;;;21.00;60.60;;;;;;6127948;23;20338;-68
2022/11/26 03:44:02;;;;;;;;;;;21.10;60.70;;;;;;6127572;23;19993;-68
2022/11/26 03:46:29;;;;;;;;;;;21.20;59.70;;;;;;6127420;23;19905;-68
2022/11/26 03:48:55;;;;;;;;;;;21.20;59.90;;;;;;6128045;23;20336;-68
2022/11/26 03:51:22;;;;;;;;;;;21.30;59.90;;;;;;6126286;23;19905;-67
2022/11/26 03:53:48;;;;;;;;;;;21.30;58.80;;;;;;6127930;23;19996;-68
2022/11/26 03:56:15;;;;;;;;;;;21.20;58.40;;;;;;6127415;23;19905;-68
2022/11/26 03:58:42;;;;;;;;;;;21.20;58.30;;;;;;6127700;23;19905;-68
2022/11/26 04:01:09;;;;;;;;;;;21.30;59.90;;;;;;6127677;23;20328;-68
2022/11/26 04:03:36;;;;;;;;;;;21.30;60.20;;;;;;6102120;23;19958;-68
2022/11/26 04:06:02;;;;;;;;;;;21.30;59.50;;;;;;6127562;23;20371;-68
2022/11/26 04:08:29;;;;;;;;;;;21.30;58.20;;;;;;6128255;23;19959;-68
2022/11/26 04:10:55;;;;;;;;;;;21.40;59.10;;;;;;6126285;23;19933;-68
2022/11/26 04:13:22;;;;;;;;;;;21.40;59.10;;;;;;6127859;23;19913;-67
2022/11/26 04:15:49;;;;;;;;;;;21.40;58.60;;;;;;6125989;23;19912;-68
2022/11/26 04:18:15;;;;;;;;;;;21.40;59.40;;;;;;6100453;23;19905;-67
2022/11/26 04:20:42;;;;;;;;;;;21.40;59.40;;;;;;6125835;23;20236;-67
2022/11/26 04:23:08;;;;;;;;;;;21.40;57.70;;;;;;6100068;23;20343;-67
2022/11/26 04:25:35;;;;;;;;;;;21.50;58.90;;;;;;6125665;23;19963;-68
2022/11/26 04:28:02;;;;;;;;;;;21.50;59.00;;;;;;6122052;23;19916;-68
2022/11/26 04:30:28;;;;;;;;;;;21.50;59.40;;;;;;6121906;23;19912;-66
2022/11/26 04:32:55;;;;;;;;;;;21.40;59.70;;;;;;6121117;23;20343;-68
2022/11/26 04:35:21;;;;;;;;;;;21.40;58.80;;;;;;6119849;23;19909;-68
2022/11/26 04:37:48;;;;;;;;;;;21.40;59.90;;;;;;6094025;23;19908;-68
2022/11/26 04:40:15;;;;;;;;;;;21.30;59.20;;;;;;6119226;23;19991;-67
2022/11/26 04:42:41;;;;;;;;;;;21.30;59.20;;;;;;6120530;23;19929;-67
2022/11/26 04:45:09;;;;;;;;;;;21.30;60.50;;;;;;6122604;23;20259;-67
2022/11/26 04:47:35;;;;;;;;;;;21.30;59.40;;;;;;6123114;23;19932;-67
2022/11/26 04:50:02;;;;;;;;;;;21.30;60.30;;;;;;6122965;23;19905;-67
2022/11/26 04:52:28;;;;;;;;;;;21.30;59.10;;;;;;6122496;23;19935;-67
2022/11/26 04:54:55;;;;;;;;;;;21.20;59.50;;;;;;6122885;23;19913;-68
2022/11/26 04:57:21;;;;;;;;;;;21.20;60.40;;;;;;6123168;23;19933;-67
2022/11/26 04:59:48;;;;;;;;;;;21.20;59.70;;;;;;6120382;23;20332;-66
2022/11/26 05:02:15;;;;;;;;;;;21.30;59.50;;;;;;6122597;23;20032;-66
2022/11/26 05:04:41;;;;;;;;;;;21.30;59.30;;;;;;6122787;23;19909;-66
2022/11/26 05:07:08;;;;;;;;;;;21.20;59.30;;;;;;6122941;23;20217;-67
2022/11/26 05:09:34;;;;;;;;;;;21.30;59.70;;;;;;6122806;23;19905;-67
2022/11/26 05:12:01;;;;;;;;;;;21.20;59.80;;;;;;6122790;23;19928;-66
2022/11/26 05:14:28;;;;;;;;;;;21.20;58.90;;;;;;6096596;23;19925;-66
2022/11/26 05:16:54;;;;;;;;;;;21.20;59.10;;;;;;6122070;23;20288;-67
2022/11/26 05:19:21;;;;;;;;;;;21.20;60.20;;;;;;6122646;23;19909;-67
2022/11/26 05:21:47;;;;;;;;;;;21.10;60.30;;;;;;6122799;23;19988;-67
2022/11/26 05:24:14;;;;;;;;;;;21.10;60.30;;;;;;6122660;23;19988;-67
2022/11/26 05:26:40;;;;;;;;;;;21.00;60.70;;;;;;6122314;23;19912;-67
2022/11/26 05:29:07;;;;;;;;;;;21.00;60.10;;;;;;6121982;23;20232;-67
2022/11/26 05:31:34;;;;;;;;;;;21.00;61.00;;;;;;6122593;23;20149;-67
2022/11/26 05:34:00;;;;;;;;;;;21.00;60.70;;;;;;6122438;23;20292;-67
2022/11/26 05:36:27;;;;;;;;;;;21.00;60.80;;;;;;6122855;23;19988;-67
2022/11/26 05:38:53;;;;;;;;;;;21.00;60.50;;;;;;6121679;23;19967;-67
2022/11/26 05:41:20;;;;;;;;;;;21.00;60.70;;;;;;6122084;23;19913;-67
2022/11/26 05:43:47;;;;;;;;;;;21.00;60.80;;;;;;6122389;23;19963;-67
2022/11/26 05:46:14;;;;;;;;;;;20.90;60.00;;;;;;6096565;23;19947;-67
2022/11/26 05:48:40;;;;;;;;;;;20.80;59.80;;;;;;6122530;23;19932;-67
2022/11/26 05:51:07;;;;;;;;;;;20.80;59.80;;;;;;6121780;23;19995;-67
2022/11/26 05:53:33;;;;;;;;;;;20.80;61.20;;;;;;6122417;23;19916;-67
2022/11/26 05:56:00;;;;;;;;;;;20.80;60.30;;;;;;6122762;23;20340;-67
2022/11/26 05:58:27;;;;;;;;;;;20.80;61.50;;;;;;6123005;23;19917;-67
2022/11/26 06:00:53;;;;;;;;;;;20.80;62.10;;;;;;6094185;23;20301;-67
2022/11/26 06:03:20;;;;;;;;;;;20.80;61.50;;;;;;6122157;23;19905;-68
2022/11/26 06:05:46;;;;;;;;;;;20.80;62.30;;;;;;6122258;23;19926;-67
2022/11/26 06:08:13;;;;;;;;;;;20.80;61.90;;;;;;6096850;23;19920;-66
2022/11/26 06:10:43;;;;;;;;;;;20.80;61.80;;;;;;6122493;23;19912;-66
2022/11/26 06:13:09;;;;;;;;;;;20.80;61.70;;;;;;6122709;23;19921;-66
2022/11/26 06:15:36;;;;;;;;;;;20.70;62.20;;;;;;6122590;23;19909;-66
2022/11/26 06:18:02;;;;;;;;;;;20.50;62.50;;;;;;6122109;23;20351;-67
2022/11/26 06:20:29;;;;;;;;;;;20.50;63.40;;;;;;6121905;23;20237;-66
2022/11/26 06:22:56;;;;;;;;;;;20.50;62.40;;;;;;6122469;23;19909;-66
2022/11/26 06:25:22;;;;;;;;;;;20.60;61.80;;;;;;6122600;23;20233;-66
2022/11/26 06:27:50;;;;;;;;;;;20.50;61.40;;;;;;6121762;23;19905;-66
2022/11/26 06:30:17;;;;;;;;;;;20.50;60.90;;;;;;6121756;23;20351;-67
2022/11/26 06:32:44;;;;;;;;;;;20.50;61.00;;;;;;6121814;23;20244;-68
2022/11/26 06:35:10;;;;;;;;;;;20.40;61.60;;;;;;6121871;23;19913;-67
2022/11/26 06:37:37;;;;;;;;;;;20.50;62.40;;;;;;6121534;23;19912;-68
2022/11/26 06:40:04;;;;;;;;;;;20.50;62.20;;;;;;6121387;23;19936;-67
2022/11/26 06:42:30;;;;;;;;;;;20.50;62.70;;;;;;6096489;23;19986;-67
2022/11/26 06:44:57;;;;;;;;;;;20.40;62.90;;;;;;6121734;23;19919;-67
2022/11/26 06:47:24;;;;;;;;;;;20.50;62.20;;;;;;6095946;23;19905;-67
2022/11/26 06:49:50;;;;;;;;;;;20.40;62.40;;;;;;6121549;23;19909;-67
2022/11/26 06:52:17;;;;;;;;;;;20.40;62.70;;;;;;6121936;23;19951;-67
2022/11/26 06:54:43;;;;;;;;;;;20.50;63.70;;;;;;6121835;23;20305;-67
2022/11/26 06:57:10;;;;;;;;;;;20.50;63.60;;;;;;6096411;23;19905;-67
2022/11/26 06:59:37;;;;;;;;;;;20.40;62.90;;;;;;6119628;23;20107;-67
2022/11/26 07:02:03;;;;;;;;;;;20.50;63.30;;;;;;6121152;23;20256;-67
2022/11/26 07:04:30;;;;;;;;;;;20.50;63.70;;;;;;6121629;23;19920;-67
2022/11/26 07:06:56;;;;;;;;;;;20.50;63.60;;;;;;6121676;23;19909;-67
2022/11/26 07:09:23;;;;;;;;;;;20.50;63.90;;;;;;6121834;23;19920;-65
2022/11/26 07:11:50;;;;;;;;;;;20.50;64.40;;;;;;6121789;23;19960;-66
2022/11/26 07:14:17;;;;;;;;;;;20.50;64.60;;;;;;6121494;23;19955;-66
2022/11/26 07:16:43;;;;;;;;;;;20.50;64.90;;;;;;6121465;23;19905;-65
2022/11/26 07:19:11;;;;;;;;;;;20.40;64.10;;;;;;6121878;23;19995;-65
2022/11/26 07:21:38;;;;;;;;;;;20.40;64.60;;;;;;6096546;23;19964;-65
2022/11/26 07:24:04;;;;;;;;;;;20.40;64.80;;;;;;6122102;23;19909;-66
2022/11/26 07:26:31;;;;;;;;;;;20.40;64.80;;;;;;6121785;23;19909;-66
2022/11/26 07:28:58;;;;;;;;;;;20.30;64.30;;;;;;6121072;23;19905;-67
2022/11/26 07:31:24;;;;;;;;;;;20.30;65.20;;;;;;6121797;23;19909;-67
2022/11/26 07:33:51;;;;;;;;;;;20.30;65.80;;;;;;6121761;23;19951;-67
2022/11/26 07:36:18;;;;;;;;;;;20.30;66.10;;;;;;6121455;23;19913;-67
2022/11/26 07:38:45;;;;;;;;;;;20.30;66.30;;;;;;6121258;23;19983;-69
2022/11/26 07:41:13;;;;;;;;;;;20.30;65.50;;;;;;6095708;23;19995;-69
2022/11/26 07:43:39;;;;;;;;;;;20.20;65.40;;;;;;6119803;23;19984;-67
2022/11/26 07:46:07;;;;;;;;;;;20.20;65.00;;;;;;6120911;23;19984;-67
2022/11/26 07:48:34;;;;;;;;;;;20.20;65.20;;;;;;6121980;23;19995;-75
2022/11/26 07:51:00;;;;;;;;;;;20.20;65.70;;;;;;6096901;23;19915;-67
2022/11/26 07:53:27;;;;;;;;;;;20.20;66.20;;;;;;6122893;23;19992;-67
2022/11/26 07:55:54;;;;;;;;;;;20.20;65.90;;;;;;6097028;23;19913;-67
2022/11/26 07:58:20;;;;;;;;;;;20.10;65.50;;;;;;6097005;23;19909;-68
2022/11/26 08:00:47;;;;;;;;;;;20.10;66.50;;;;;;6121302;23;20281;-68
2022/11/26 08:03:14;;;;;;;;;;;20.10;66.40;;;;;;6122942;23;19909;-67
2022/11/26 08:05:43;;;;;;;;;;;20.10;67.10;;;;;;6097373;23;20291;-69
2022/11/26 08:08:10;;;;;;;;;;;20.10;67.50;;;;;;6123382;23;19964;-68
2022/11/26 08:10:36;;;;;;;;;;;20.10;67.60;;;;;;6097591;23;19916;-67
2022/11/26 08:13:03;;;;;;;;;;;20.00;68.10;;;;;;6123031;23;19995;-67
2022/11/26 08:15:31;;;;;;;;;;;20.00;67.90;;;;;;6123058;23;19983;-67
2022/11/26 08:17:57;;;;;;;;;;;20.00;67.70;;;;;;6123490;23;19932;-67
2022/11/26 08:20:24;;;;;;;;;;;20.00;67.80;;;;;;6097109;23;20305;-68
2022/11/26 08:22:51;;;;;;;;;;;20.00;68.10;;;;;;6097484;23;20363;-67
2022/11/26 08:25:17;;;;;;;;;;;19.90;68.10;;;;;;6123158;23;19928;-67
2022/11/26 08:27:44;;;;;;;;;;;20.00;67.80;;;;;;6122653;23;19909;-67
2022/11/26 08:30:13;;;;;;;;;;;19.90;67.70;;;;;;6122953;23;20351;-67
2022/11/26 08:32:39;;;;;;;;;;;19.90;67.80;;;;;;6123645;23;20336;-68
2022/11/26 08:35:06;;;;;;;;;;;20.00;67.90;;;;;;6123050;23;19995;-67
2022/11/26 08:37:33;;;;;;;;;;;19.90;68.00;;;;;;6122648;23;20285;-67
2022/11/26 08:39:59;;;;;;;;;;;19.90;67.90;;;;;;6122594;23;20041;-68
2022/11/26 08:42:26;;;;;;;;;;;19.80;68.40;;;;;;6122878;23;20395;-68
2022/11/26 08:44:53;;;;;;;;;;;19.90;68.20;;;;;;6122757;23;19909;-68
2022/11/26 08:47:20;;;;;;;;;;;19.80;67.70;;;;;;6122463;23;19909;-67
2022/11/26 08:49:48;;;;;;;;;;;19.80;67.70;;;;;;6073243;23;19909;-68
2022/11/26 08:52:15;;;;;;;;;;;19.80;67.80;;;;;;6123090;23;19943;-68
2022/11/26 08:54:41;;;;;;;;;;;19.80;68.20;;;;;;6122788;23;19920;-67
2022/11/26 08:57:08;;;;;;;;;;;19.70;67.50;;;;;;6123296;23;20343;-68
2022/11/26 08:59:35;;;;;;;;;;;19.70;67.40;;;;;;6119973;23;19913;-67
2022/11/26 09:02:01;;;;;;;;;;;19.70;67.80;;;;;;6122573;23;19920;-68
2022/11/26 09:04:28;;;;;;;;;;;19.60;68.20;;;;;;6122979;23;19908;-67
2022/11/26 09:06:54;;;;;;;;;;;19.60;68.30;;;;;;6122889;23;19909;-68
2022/11/26 09:09:21;;;;;;;;;;;19.60;68.20;;;;;;6122897;23;19936;-67
2022/11/26 09:11:54;;;;;;;;;;;19.50;68.70;;;;;;6122998;23;20304;-68
2022/11/26 09:14:23;;;;;;;;;;;19.50;69.10;;;;;;6097322;23;19996;-69
2022/11/26 09:16:50;;;;;;;;;;;19.50;69.20;;;;;;6073129;23;19917;-68
2022/11/26 09:19:17;;;;;;;;;;;19.40;69.30;;;;;;6096688;23;19987;-69
2022/11/26 09:21:44;;;;;;;;;;;19.40;69.70;;;;;;6123044;23;19912;-68
2022/11/26 09:24:10;;;;;;;;;;;19.40;69.50;;;;;;6123056;23;19916;-68
2022/11/26 09:26:37;;;;;;;;;;;19.40;69.90;;;;;;6072724;23;19932;-68
2022/11/26 09:29:04;;;;;;;;;;;19.40;70.00;;;;;;6096568;23;19913;-68
2022/11/26 09:31:30;;;;;;;;;;;19.40;70.30;;;;;;6097043;23;19905;-70
2022/11/26 09:33:58;;;;;;;;;;;19.40;70.60;;;;;;6096965;23;20310;-69
2022/11/26 09:36:24;;;;;;;;;;;19.40;70.70;;;;;;6122667;23;19980;-67
2022/11/26 09:38:54;;;;;;;;;;;19.40;70.60;;;;;;6121967;23;20312;-67
2022/11/26 09:41:29;;;;;;;;;;;19.40;71.10;;;;;;6122688;23;19912;-69
2022/11/26 09:44:05;;;;;;;;;;;19.40;71.00;;;;;;6072946;23;19991;-68
2022/11/26 09:46:34;;;;;;;;;;;19.30;71.20;;;;;;6122474;23;20027;-68
2022/11/26 09:49:01;;;;;;;;;;;19.30;71.60;;;;;;6096316;23;19968;-68
2022/11/26 09:51:27;;;;;;;;;;;19.30;71.60;;;;;;6096094;23;19996;-67
2022/11/26 09:53:54;;;;;;;;;;;19.30;71.80;;;;;;6096182;23;19967;-68
2022/11/26 09:56:21;;;;;;;;;;;19.30;71.70;;;;;;6096729;23;19912;-68
2022/11/26 09:58:50;;;;;;;;;;;19.30;71.80;;;;;;6096933;23;20228;-68
2022/11/26 10:01:17;;;;;;;;;;;19.20;72.00;;;;;;6093966;23;19936;-67
2022/11/26 10:03:44;;;;;;;;;;;19.30;72.10;;;;;;6096267;23;19916;-68
2022/11/26 10:06:23;;;;;;;;;;;19.20;72.10;;;;;;6096284;23;19927;-68
2022/11/26 10:09:07;;;;;;;;;;;19.20;72.40;;;;;;6122739;23;20356;-68
2022/11/26 10:11:34;;;;;;;;;;;19.20;72.20;;;;;;6122211;23;20225;-67
2022/11/26 10:14:10;;;;;;;;;;;19.20;72.50;;;;;;6121760;23;19967;-66
2022/11/26 10:16:36;;;;;;;;;;;19.20;73.00;;;;;;6123104;23;19909;-69
2022/11/26 10:19:07;;;;;;;;;;;19.20;72.80;;;;;;6121986;23;19984;-69
2022/11/26 10:21:43;;;;;;;;;;;19.20;72.90;;;;;;6096414;23;19909;-67
2022/11/26 10:24:13;;;;;;;;;;;19.20;73.00;;;;;;6096871;23;19972;-68
2022/11/26 10:26:40;;;;;;;;;;;19.20;73.10;;;;;;6122082;23;19959;-67
2022/11/26 10:29:21;;;;;;;;;;;19.20;73.20;;;;;;6096726;23;20765;-67
2022/11/26 10:31:48;;;;;;;;;;;19.10;73.40;;;;;;6121823;23;19905;-69
2022/11/26 10:34:18;;;;;;;;;;;19.10;73.40;;;;;;6121889;23;20249;-70
2022/11/26 10:36:45;;;;;;;;;;;19.20;73.60;;;;;;6096381;23;19956;-68
2022/11/26 10:39:12;;;;;;;;;;;19.10;73.60;;;;;;6095700;23;19932;-68
2022/11/26 10:41:39;;;;;;;;;;;19.10;73.90;;;;;;6095934;23;19977;-67
2022/11/26 10:44:24;;;;;;;;;;;19.10;73.80;;;;;;6121651;23;19909;-67
2022/11/26 10:46:50;;;;;;;;;;;19.10;74.00;;;;;;6121850;23;19904;-67
2022/11/26 10:49:29;;;;;;;;;;;19.00;74.20;;;;;;6121917;23;19956;-69
2022/11/26 10:51:57;;;;;;;;;;;19.10;74.30;;;;;;6095564;23;20396;-67
2022/11/26 10:54:26;;;;;;;;;;;19.10;74.20;;;;;;6121295;23;20343;-67
2022/11/26 10:56:54;;;;;;;;;;;19.00;74.30;;;;;;6121744;23;19912;-67
2022/11/26 10:59:23;;;;;;;;;;;19.00;74.30;;;;;;6119894;23;19951;-67
2022/11/26 11:01:50;;;;;;;;;;;19.00;74.40;;;;;;6096108;23;19916;-67
2022/11/26 11:04:42;;;;;;;;;;;19.00;74.40;;;;;;6124297;23;19976;-67
2022/11/26 11:07:29;;;;;;;;;;;19.00;74.70;;;;;;6119263;23;19904;-66
2022/11/26 11:10:02;;;;;;;;;;;19.00;74.60;;;;;;6104580;23;20416;-67
2022/11/26 11:12:29;;;;;;;;;;;18.90;74.60;;;;;;6125116;23;19912;-67
2022/11/26 11:14:55;;;;;;;;;;;18.90;74.70;;;;;;6124993;23;19909;-66
2022/11/26 11:17:31;;;;;;;;;;;19.00;74.60;;;;;;6124772;23;19905;-66
2022/11/26 11:19:58;;;;;;;;;;;19.00;74.90;;;;;;6124886;23;19905;-67
2022/11/26 11:22:25;;;;;;;;;;;18.90;74.80;;;;;;6099515;23;19919;-67
2022/11/26 11:24:52;;;;;;;;;;;18.90;75.00;;;;;;6101227;23;19960;-66
2022/11/26 11:27:31;;;;;;;;;;;18.90;74.90;;;;;;6101240;23;19928;-67
2022/11/26 11:30:01;;;;;;;;;;;18.90;75.00;;;;;;6126955;23;19909;-67
2022/11/26 11:32:34;;;;;;;;;;;18.80;74.90;;;;;;6101120;23;19905;-67
2022/11/26 11:35:32;;;;;;;;;;;18.80;74.80;;;;;;6127047;23;19980;-67
2022/11/26 11:37:59;;;;;;;;;;;18.80;75.00;;;;;;6062791;23;19968;-67
2022/11/26 11:40:29;;;;;;;;;;;18.80;75.00;;;;;;6101211;23;19995;-67
2022/11/26 11:42:59;;;;;;;;;;;18.80;74.80;;;;;;6126620;23;19909;-67
2022/11/26 11:45:52;;;;;;;;;;;18.80;75.00;;;;;;6100668;23;19904;-67
2022/11/26 11:48:37;;;;;;;;;;;18.80;75.00;;;;;;6121638;23;19905;-67
2022/11/26 11:51:08;;;;;;;;;;;18.80;75.30;;;;;;6126520;23;19912;-67
2022/11/26 11:53:34;;;;;;;;;;;18.80;74.90;;;;;;6100806;23;20338;-67
2022/11/26 11:56:05;;;;;;;;;;;18.80;75.20;;;;;;6126462;23;19912;-67
2022/11/26 11:58:31;;;;;;;;;;;18.80;75.10;;;;;;6100796;23;19909;-67
2022/11/26 12:01:04;;;;;;;;;;;18.80;75.30;;;;;;6126808;23;19909;-67
2022/11/26 12:03:37;;;;;;;;;;;18.80;75.40;;;;;;6101063;23;19905;-67
2022/11/26 12:06:22;;;;;;;;;;;18.80;75.40;;;;;;6126296;23;19944;-67
2022/11/26 12:09:02;;;;;;;;;;;18.70;75.70;;;;;;6100463;23;19905;-67
2022/11/26 12:11:46;;;;;;;;;;;18.80;75.60;;;;;;6100702;23;20002;-67
2022/11/26 12:14:24;;;;;;;;;;;18.80;75.50;;;;;;6126851;23;19917;-67
2022/11/26 12:16:55;;;;;;;;;;;18.80;75.50;;;;;;6126496;23;19905;-69
2022/11/26 12:19:28;;;;;;;;;;;18.80;75.30;;;;;;6100557;23;19905;-67
2022/11/26 12:21:56;;;;;;;;;;;18.80;75.50;;;;;;6100584;23;20344;-67
2022/11/26 12:24:23;;;;;;;;;;;18.70;75.80;;;;;;6100930;23;19914;-67
2022/11/26 12:26:54;;;;;;;;;;;18.70;75.80;;;;;;6127113;23;19916;-67
2022/11/26 12:29:25;;;;;;;;;;;18.80;76.10;;;;;;6100964;23;19940;-67
2022/11/26 12:31:56;;;;;;;;;;;18.70;76.00;;;;;;6100630;23;19936;-67
2022/11/26 12:34:22;;;;;;;;;;;18.70;76.30;;;;;;6126052;23;19936;-67
2022/11/26 12:36:55;;;;;;;;;;;18.70;76.50;;;;;;6126032;23;19936;-67
2022/11/26 12:39:27;;;;;;;;;;;18.60;76.30;;;;;;6126127;23;20280;-67
2022/11/26 12:41:55;;;;;;;;;;;18.60;76.50;;;;;;6126290;23;19905;-67
2022/11/26 12:44:32;;;;;;;;;;;18.60;76.40;;;;;;6126167;23;19929;-67
2022/11/26 12:47:09;;;;;;;;;;;18.60;76.40;;;;;;6100503;23;19912;-67
2022/11/26 12:49:44;;;;;;;;;;;18.60;76.60;;;;;;6099977;23;19963;-67
2022/11/26 12:52:16;;;;;;;;;;;18.60;76.50;;;;;;6100362;23;19968;-67
2022/11/26 12:54:53;;;;;;;;;;;18.50;76.50;;;;;;6126163;23;19953;-67
2022/11/26 12:57:25;;;;;;;;;;;18.60;76.50;;;;;;6100257;23;20000;-67
2022/11/26 12:59:55;;;;;;;;;;;18.50;76.40;;;;;;6126103;23;19909;-67
2022/11/26 13:02:24;;;;;;;;;;;18.60;76.60;;;;;;6125916;23;19905;-67
2022/11/26 13:04:51;;;;;;;;;;;18.60;76.40;;;;;;6126285;23;20347;-67
2022/11/26 13:07:38;;;;;;;;;;;18.60;76.50;;;;;;6126043;23;19924;-67
2022/11/26 13:10:04;;;;;;;;;;;18.60;76.50;;;;;;6105546;23;19968;-67
2022/11/26 13:12:45;;;;;;;;;;;18.60;76.40;;;;;;6125860;23;19948;-67
2022/11/26 13:15:17;;;;;;;;;;;18.50;76.50;;;;;;6100219;23;20388;-67
2022/11/26 13:17:45;;;;;;;;;;;18.60;76.40;;;;;;6099885;23;19988;-67
2022/11/26 13:20:31;;;;;;;;;;;18.50;76.80;;;;;;6100167;23;19991;-67
2022/11/26 13:23:20;;;;;;;;;;;18.50;76.90;;;;;;6126573;23;20236;-67
2022/11/26 13:25:53;;;;;;;;;;;18.50;76.80;;;;;;6126300;23;19945;-67
2022/11/26 13:28:28;;;;;;;;;;;18.50;76.70;;;;;;6100652;23;19913;-67
2022/11/26 13:31:07;;;;;;;;;;;18.50;76.90;;;;;;6099866;23;19928;-67
2022/11/26 13:33:49;;;;;;;;;;;18.50;76.80;;;;;;6125616;23;20236;-67
2022/11/26 13:36:18;;;;;;;;;;;18.50;76.90;;;;;;6126312;23;20348;-67
2022/11/26 13:39:03;;;;;;;;;;;18.50;77.00;;;;;;6100022;23;19915;-67
2022/11/26 13:41:43;;;;;;;;;;;18.50;77.10;;;;;;6125920;23;20276;-67
2022/11/26 13:44:13;;;;;;;;;;;18.50;77.20;;;;;;6099602;23;19916;-67
2022/11/26 13:46:40;;;;;;;;;;;18.50;77.20;;;;;;6125484;23;19987;-67
2022/11/26 13:49:30;;;;;;;;;;;18.50;77.10;;;;;;6100275;23;19991;-67
2022/11/26 13:51:56;;;;;;;;;;;18.50;77.20;;;;;;6110462;23;19916;-67
2022/11/26 13:54:29;;;;;;;;;;;18.50;77.40;;;;;;6125731;23;19913;-67
2022/11/26 13:57:03;;;;;;;;;;;18.50;77.40;;;;;;6125626;23;19912;-67
2022/11/26 13:59:30;;;;;;;;;;;18.50;77.30;;;;;;6125267;23;19905;-67
2022/11/26 14:01:56;;;;;;;;;;;18.50;77.50;;;;;;6125760;23;19930;-67
2022/11/26 14:04:23;;;;;;;;;;;18.50;77.40;;;;;;6100087;23;19920;-67
2022/11/26 14:07:05;;;;;;;;;;;18.50;77.50;;;;;;6124975;23;20325;-67
2022/11/26 14:09:43;;;;;;;;;;;18.50;77.60;;;;;;6125081;23;19979;-68
2022/11/26 14:12:10;;;;;;;;;;;18.40;77.60;;;;;;6125520;23;19908;-67
2022/11/26 14:14:38;;;;;;;;;;;18.50;77.60;;;;;;6125334;23;20015;-67
2022/11/26 14:17:04;;;;;;;;;;;18.40;77.60;;;;;;6099331;23;19912;-67
2022/11/26 14:19:40;;;;;;;;;;;18.50;77.70;;;;;;6125302;23;19905;-67
2022/11/26 14:22:07;;;;;;;;;;;18.40;77.70;;;;;;6125176;23;19909;-67
2022/11/26 14:24:49;;;;;;;;;;;18.40;77.90;;;;;;6125558;23;19905;-67
2022/11/26 14:27:16;;;;;;;;;;;18.40;78.00;;;;;;6125988;23;20088;-67
2022/11/26 14:29:43;;;;;;;;;;;18.50;78.20;;;;;;6075266;23;19932;-67